createdAt,value
2018-05-25T00:01:11.506Z,63.32
2018-05-25T00:03:39.891Z,64.17
2018-05-25T00:06:08.304Z,64.96
2018-05-25T00:08:36.730Z,63.09
2018-05-25T00:11:05.117Z,62.35
2018-05-25T00:13:33.590Z,63.79
2018-05-25T00:16:02.076Z,62.96
2018-05-25T00:18:30.492Z,63.15
2018-05-25T00:20:58.978Z,66.92
2018-05-25T00:23:27.442Z,65.29
2018-05-25T00:25:55.874Z,65.39
2018-05-25T00:28:24.350Z,65.56
2018-05-25T00:30:52.719Z,66.16
2018-05-25T00:33:21.343Z,65.31
2018-05-25T00:35:49.741Z,62.70
2018-05-25T00:38:18.262Z,63.84
2018-05-25T00:40:46.671Z,63.75
2018-05-25T00:43:15.116Z,63.35
2018-05-25T00:45:43.462Z,61.68
2018-05-25T00:48:11.836Z,63.46
2018-05-25T00:50:40.244Z,62.35
2018-05-25T00:53:08.713Z,62.19
2018-05-25T00:55:39.995Z,64.28
2018-05-25T00:58:08.397Z,64.14
2018-05-25T01:00:36.788Z,64.17
2018-05-25T01:03:05.201Z,63.69
2018-05-25T01:05:33.662Z,63.47
2018-05-25T01:08:02.066Z,62.29
2018-05-25T01:10:30.577Z,61.26
2018-05-25T01:12:59.030Z,62.60
2018-05-25T01:15:27.421Z,64.95
2018-05-25T01:17:55.869Z,62.81
2018-05-25T01:20:24.494Z,62.39
2018-05-25T01:22:52.845Z,62.71
2018-05-25T01:25:21.307Z,62.86
2018-05-25T01:27:49.787Z,62.33
2018-05-25T01:30:18.203Z,61.11
2018-05-25T01:32:46.604Z,60.83
2018-05-25T01:35:15.144Z,60.10
2018-05-25T01:37:44.620Z,60.33
2018-05-25T01:40:13.015Z,62.88
2018-05-25T01:42:41.485Z,60.79
2018-05-25T01:45:09.916Z,59.86
2018-05-25T01:47:38.360Z,58.95
2018-05-25T01:50:06.747Z,59.69
2018-05-25T01:52:36.063Z,58.34
2018-05-25T01:55:04.467Z,60.16
2018-05-25T01:57:32.932Z,61.19
2018-05-25T02:00:01.381Z,59.18
2018-05-25T02:02:29.786Z,61.50
2018-05-25T02:04:58.234Z,62.04
2018-05-25T02:07:26.628Z,63.15
2018-05-25T02:09:55.088Z,61.63
2018-05-25T02:12:23.557Z,60.30
2018-05-25T02:14:51.988Z,61.61
2018-05-25T02:17:20.420Z,64.38
2018-05-25T02:19:48.917Z,61.84
2018-05-25T02:22:17.371Z,59.43
2018-05-25T02:24:45.762Z,58.50
2018-05-25T02:27:14.200Z,57.22
2018-05-25T02:29:42.658Z,57.64
2018-05-25T02:32:11.037Z,57.19
2018-05-25T02:34:39.473Z,56.87
2018-05-25T02:37:08.073Z,56.14
2018-05-25T02:39:36.534Z,56.41
2018-05-25T02:42:05.146Z,55.66
2018-05-25T02:44:33.610Z,56.16
2018-05-25T02:47:02.044Z,54.95
2018-05-25T02:49:30.396Z,54.88
2018-05-25T02:51:58.788Z,54.37
2018-05-25T02:54:27.250Z,58.32
2018-05-25T02:56:55.723Z,60.33
2018-05-25T02:59:24.151Z,60.62
2018-05-25T03:01:52.717Z,61.87
2018-05-25T03:04:21.117Z,62.16
2018-05-25T03:06:49.496Z,62.94
2018-05-25T03:09:17.860Z,61.84
2018-05-25T03:11:46.434Z,62.30
2018-05-25T03:14:14.982Z,61.65
2018-05-25T03:16:43.369Z,62.84
2018-05-25T03:19:11.819Z,64.40
2018-05-25T03:21:40.256Z,62.96
2018-05-25T03:24:08.729Z,64.81
2018-05-25T03:26:37.206Z,64.84
2018-05-25T03:29:05.689Z,63.37
2018-05-25T03:31:35.012Z,62.95
2018-05-25T03:34:03.393Z,61.70
2018-05-25T03:36:31.813Z,61.69
2018-05-25T03:39:00.276Z,62.28
2018-05-25T03:41:28.635Z,61.41
2018-05-25T03:43:57.045Z,62.29
2018-05-25T03:46:25.484Z,64.59
2018-05-25T03:48:53.955Z,61.76
2018-05-25T03:51:22.327Z,64.66
2018-05-25T03:53:50.771Z,64.75
2018-05-25T03:56:19.170Z,62.98
2018-05-25T04:02:00.595Z,63.68
2018-05-25T04:04:30.289Z,65.14
2018-05-25T04:06:58.820Z,62.79
2018-05-25T04:09:30.338Z,62.45
2018-05-25T04:11:59.026Z,62.83
2018-05-25T04:14:27.747Z,67.45
2018-05-25T04:17:01.131Z,64.53
2018-05-25T04:30:26.311Z,65.71
2018-05-25T04:32:59.302Z,61.99
2018-05-25T04:35:31.941Z,60.80
2018-05-25T04:38:03.117Z,61.77
2018-05-25T04:40:35.774Z,63.91
2018-05-25T04:43:07.844Z,62.50
2018-05-25T04:45:36.609Z,61.46
2018-05-25T04:48:05.367Z,62.46
2018-05-25T04:50:34.913Z,62.03
2018-05-25T04:53:03.872Z,63.04
2018-05-25T04:55:33.197Z,62.09
2018-05-25T04:58:01.795Z,60.47
2018-05-25T05:00:30.534Z,60.46
2018-05-25T05:03:00.219Z,60.12
2018-05-25T05:05:28.816Z,62.31
2018-05-25T05:07:57.515Z,60.60
2018-05-25T05:10:28.019Z,60.03
2018-05-25T05:13:04.342Z,61.52
2018-05-25T05:15:35.143Z,59.18
2018-05-25T05:18:04.176Z,63.55
2018-05-25T05:20:32.717Z,64.00
2018-05-25T05:23:01.831Z,64.89
2018-05-25T05:25:30.444Z,64.10
2018-05-25T05:28:01.719Z,63.52
2018-05-25T05:30:30.807Z,63.81
2018-05-25T05:33:01.324Z,62.94
2018-05-25T05:35:33.123Z,60.30
2018-05-25T05:38:04.589Z,59.76
2018-05-25T05:40:35.288Z,59.50
2018-05-25T05:43:12.792Z,58.34
2018-05-25T05:45:43.684Z,59.72
2018-05-25T05:48:12.247Z,60.00
2018-05-25T05:50:42.046Z,58.81
2018-05-25T05:53:12.403Z,62.94
2018-05-25T05:55:44.450Z,64.63
2018-05-25T05:58:12.946Z,67.24
2018-05-25T06:00:45.184Z,66.11
2018-05-25T06:03:19.201Z,64.61
2018-05-25T06:05:50.903Z,66.62
2018-05-25T06:08:20.937Z,63.68
2018-05-25T06:10:56.151Z,68.42
2018-05-25T06:13:24.831Z,64.73
2018-05-25T06:15:53.604Z,64.52
2018-05-25T06:18:23.192Z,62.56
2018-05-25T06:20:59.035Z,62.30
2018-05-25T06:32:42.775Z,58.47
2018-05-25T06:35:13.339Z,57.78
2018-05-25T06:37:46.225Z,59.69
2018-05-25T06:43:28.923Z,61.64
2018-05-25T06:46:02.292Z,61.61
2018-05-25T06:55:00.148Z,59.62
2018-05-25T06:57:36.519Z,57.72
2018-05-25T07:06:36.222Z,58.76
2018-05-25T07:09:19.840Z,59.17
2018-05-25T07:11:48.228Z,54.92
2018-05-25T07:14:16.683Z,52.90
2018-05-25T07:16:45.097Z,53.14
2018-05-25T07:19:13.618Z,55.09
2018-05-25T07:21:41.973Z,49.85
2018-05-25T07:24:10.326Z,50.13
2018-05-25T07:26:38.797Z,49.55
2018-05-25T07:29:07.144Z,50.19
2018-05-25T07:31:36.729Z,50.08
2018-05-25T07:34:05.122Z,50.26
2018-05-25T07:36:33.563Z,50.96
2018-05-25T07:39:02.015Z,50.30
2018-05-25T07:41:37.280Z,50.94
2018-05-25T07:44:05.705Z,51.37
2018-05-25T07:46:42.925Z,53.70
2018-05-25T07:49:11.480Z,51.30
2018-05-25T07:51:39.844Z,48.90
2018-05-25T07:54:08.261Z,48.94
2018-05-25T07:56:36.625Z,48.88
2018-05-25T07:59:05.001Z,47.07
2018-05-25T08:01:33.381Z,49.14
2018-05-25T08:04:01.797Z,49.33
2018-05-25T08:06:30.221Z,48.32
2018-05-25T08:08:58.694Z,47.67
2018-05-25T08:11:27.094Z,46.62
2018-05-25T08:13:55.578Z,43.46
2018-05-25T08:16:23.934Z,42.99
2018-05-25T08:18:52.670Z,43.48
2018-05-25T08:21:21.115Z,43.37
2018-05-25T08:23:49.493Z,44.00
2018-05-25T08:26:17.907Z,45.60
2018-05-25T08:28:46.267Z,44.87
2018-05-25T08:31:14.709Z,42.39
2018-05-25T08:33:43.100Z,41.40
2018-05-25T08:36:11.486Z,40.47
2018-05-25T08:38:39.848Z,40.79
2018-05-25T08:41:08.282Z,41.85
2018-05-25T08:43:36.773Z,43.87
2018-05-25T08:46:07.781Z,45.17
2018-05-25T08:48:41.259Z,46.17
2018-05-25T08:51:10.092Z,47.53
2018-05-25T08:53:38.540Z,45.12
2018-05-25T08:56:06.929Z,47.87
2018-05-25T08:58:35.452Z,49.64
2018-05-25T09:01:03.834Z,51.34
2018-05-25T09:06:11.017Z,53.37
2018-05-25T09:08:42.474Z,52.82
2018-05-25T09:11:10.850Z,53.25
2018-05-25T09:13:42.378Z,52.47
2018-05-25T09:16:12.203Z,50.10
2018-05-25T09:18:44.238Z,48.50
2018-05-25T09:21:13.945Z,48.38
2018-05-25T09:23:44.217Z,49.63
2018-05-25T09:28:48.150Z,51.91
2018-05-25T09:31:16.655Z,52.06
2018-05-25T09:33:45.766Z,49.62
2018-05-25T09:36:14.359Z,49.09
2018-05-25T09:38:42.764Z,48.81
2018-05-25T09:41:11.398Z,49.78
2018-05-25T09:43:40.785Z,49.70
2018-05-25T09:46:11.089Z,48.25
2018-05-25T09:48:41.901Z,47.04
2018-05-25T09:51:10.305Z,48.78
2018-05-25T09:53:38.676Z,49.18
2018-05-25T09:56:07.078Z,50.41
2018-05-25T09:58:35.461Z,50.44
2018-05-25T10:01:03.825Z,48.00
2018-05-25T10:03:39.755Z,47.37
2018-05-25T10:06:19.219Z,46.24
2018-05-25T10:08:49.537Z,42.88
2018-05-25T10:11:17.911Z,41.94
2018-05-25T10:13:46.257Z,41.70
2018-05-25T10:16:14.635Z,41.97
2018-05-25T10:18:49.295Z,40.18
2018-05-25T10:23:57.347Z,36.08
2018-05-25T10:26:25.802Z,35.02
2018-05-25T10:28:54.739Z,35.57
2018-05-25T10:31:24.201Z,36.52
2018-05-25T10:33:57.484Z,35.55
2018-05-25T10:36:25.915Z,35.65
2018-05-25T10:38:54.435Z,34.57
2018-05-25T10:41:22.853Z,34.02
2018-05-25T10:43:51.300Z,33.98
2018-05-25T10:46:19.742Z,33.54
2018-05-25T10:48:48.191Z,36.60
2018-05-25T10:51:16.692Z,39.84
2018-05-25T10:53:45.141Z,42.34
2018-05-25T10:56:13.911Z,43.22
2018-05-25T10:58:42.544Z,42.42
2018-05-25T11:01:11.209Z,43.15
2018-05-25T11:03:42.800Z,44.58
2018-05-25T11:06:11.388Z,44.56
2018-05-25T11:08:39.912Z,47.76
2018-05-25T11:11:08.323Z,44.36
2018-05-25T11:13:36.741Z,40.94
2018-05-25T11:16:05.128Z,38.87
2018-05-25T11:18:33.558Z,38.99
2018-05-25T11:21:02.282Z,39.85
2018-05-25T11:23:30.591Z,39.11
2018-05-25T11:25:58.968Z,38.73
2018-05-25T11:28:27.396Z,38.07
2018-05-25T11:30:55.865Z,40.53
2018-05-25T11:33:24.314Z,40.01
2018-05-25T11:35:52.725Z,39.98
2018-05-25T11:38:21.152Z,40.18
2018-05-25T11:40:49.573Z,42.93
2018-05-25T11:43:18.012Z,41.83
2018-05-25T11:45:46.441Z,42.70
2018-05-25T11:48:14.820Z,45.58
2018-05-25T11:50:43.355Z,46.12
2018-05-25T11:53:13.288Z,45.43
2018-05-25T11:55:47.412Z,45.01
2018-05-25T11:58:15.895Z,44.61
2018-05-25T12:00:44.289Z,43.15
2018-05-25T12:03:15.608Z,43.75
2018-05-25T12:05:47.132Z,41.48
2018-05-25T12:08:16.554Z,41.32
2018-05-25T12:10:45.040Z,39.78
2018-05-25T12:13:13.461Z,39.74
2018-05-25T12:15:48.811Z,40.90
2018-05-25T12:18:17.223Z,40.41
2018-05-25T12:20:45.684Z,38.27
2018-05-25T12:23:14.100Z,40.18
2018-05-25T12:25:42.520Z,38.20
2018-05-25T12:28:10.920Z,37.17
2018-05-25T12:30:39.344Z,39.30
2018-05-25T12:33:07.751Z,39.67
2018-05-25T12:35:57.180Z,41.16
2018-05-25T12:38:41.486Z,41.95
2018-05-25T12:41:29.472Z,40.85
2018-05-25T12:44:00.116Z,40.98
2018-05-25T12:46:28.524Z,41.53
2018-05-25T12:48:56.951Z,41.24
2018-05-25T12:51:25.321Z,41.03
2018-05-25T12:53:53.679Z,41.08
2018-05-25T12:56:22.108Z,41.87
2018-05-25T12:58:50.480Z,42.69
2018-05-25T13:01:18.896Z,39.36
2018-05-25T13:03:47.361Z,41.11
2018-05-25T13:06:15.881Z,39.44
2018-05-25T13:08:44.238Z,38.82
2018-05-25T13:11:12.706Z,39.97
2018-05-25T13:13:41.085Z,40.40
2018-05-25T13:16:09.562Z,41.05
2018-05-25T13:18:37.984Z,39.58
2018-05-25T13:21:06.408Z,40.03
2018-05-25T13:23:34.850Z,40.44
2018-05-25T13:26:03.269Z,39.02
2018-05-25T13:28:31.675Z,39.95
2018-05-25T13:31:00.120Z,41.20
2018-05-25T13:33:28.507Z,40.17
2018-05-25T13:35:58.027Z,42.21
2018-05-25T13:38:26.380Z,41.07
2018-05-25T13:40:54.744Z,43.62
2018-05-25T13:43:27.605Z,43.66
2018-05-25T13:45:57.817Z,43.56
2018-05-25T13:48:33.740Z,42.49
2018-05-25T13:51:05.121Z,39.31
2018-05-25T13:53:33.633Z,39.63
2018-05-25T13:56:02.000Z,39.59
2018-05-25T13:58:30.433Z,39.50
2018-05-25T14:00:58.797Z,39.47
2018-05-25T14:03:27.172Z,40.27
2018-05-25T14:05:55.731Z,39.92
2018-05-25T14:08:24.155Z,38.91
2018-05-25T14:10:52.497Z,41.20
2018-05-25T14:13:20.918Z,41.59
2018-05-25T14:15:49.264Z,39.85
2018-05-25T14:18:17.677Z,40.54
2018-05-25T14:20:46.088Z,41.66
2018-05-25T14:23:14.436Z,41.98
2018-05-25T14:25:42.860Z,41.86
2018-05-25T14:28:11.243Z,43.63
2018-05-25T14:30:39.652Z,43.44
2018-05-25T14:33:08.010Z,43.94
2018-05-25T14:35:37.750Z,44.20
2018-05-25T14:38:12.616Z,43.62
2018-05-25T14:40:41.063Z,42.82
2018-05-25T14:43:10.091Z,43.41
2018-05-25T14:45:38.486Z,42.82
2018-05-25T14:48:07.257Z,45.62
2018-05-25T14:50:35.616Z,43.62
2018-05-25T14:53:04.072Z,45.27
2018-05-25T14:55:32.480Z,44.68
2018-05-25T14:58:00.853Z,44.70
2018-05-25T15:00:29.265Z,46.29
2018-05-25T15:02:57.598Z,44.29
2018-05-25T15:05:25.964Z,44.62
2018-05-25T15:07:54.412Z,45.73
2018-05-25T15:10:22.773Z,44.35
2018-05-25T15:12:51.145Z,43.75
2018-05-25T15:15:19.549Z,44.85
2018-05-25T15:17:47.927Z,43.32
2018-05-25T15:20:16.367Z,44.30
2018-05-25T15:22:44.721Z,44.91
2018-05-25T15:28:22.708Z,47.19
2018-05-25T15:30:51.331Z,48.75
2018-05-25T15:33:19.560Z,48.03
2018-05-25T15:35:47.959Z,47.93
2018-05-25T15:38:16.351Z,44.65
2018-05-25T15:40:44.731Z,43.70
2018-05-25T15:43:13.179Z,43.69
2018-05-25T15:45:41.645Z,46.03
2018-05-25T15:48:10.029Z,45.07
2018-05-25T15:50:38.404Z,45.74
2018-05-25T15:53:06.814Z,44.57
2018-05-25T15:55:36.151Z,43.77
2018-05-25T15:58:04.599Z,43.30
2018-05-25T16:00:36.242Z,45.41
2018-05-25T16:03:05.019Z,42.95
2018-05-25T16:05:34.253Z,44.18
2018-05-25T16:08:02.620Z,43.61
2018-05-25T16:10:30.976Z,42.61
2018-05-25T16:12:59.368Z,43.87
2018-05-25T16:15:28.250Z,42.48
2018-05-25T16:17:56.661Z,42.79
2018-05-25T16:20:25.936Z,42.19
2018-05-25T16:22:54.338Z,42.15
2018-05-25T16:25:23.614Z,43.05
2018-05-25T16:27:52.266Z,42.48
2018-05-25T16:30:21.508Z,42.48
2018-05-25T16:32:54.315Z,40.39
2018-05-25T16:35:23.877Z,41.94
2018-05-25T16:37:53.998Z,41.24
2018-05-25T16:40:27.009Z,44.29
2018-05-25T16:42:56.361Z,44.08
2018-05-25T16:45:26.659Z,43.85
2018-05-25T16:47:55.456Z,44.45
2018-05-25T16:50:23.901Z,44.63
2018-05-25T16:52:52.333Z,46.88
2018-05-25T16:55:20.714Z,45.05
2018-05-25T16:57:50.098Z,45.14
2018-05-25T17:00:21.194Z,46.59
2018-05-25T17:02:52.722Z,46.06
2018-05-25T17:05:25.224Z,45.88
2018-05-25T17:07:55.729Z,44.44
2018-05-25T17:10:26.819Z,45.01
2018-05-25T17:12:56.656Z,43.74
2018-05-25T17:15:25.040Z,43.31
2018-05-25T17:17:56.484Z,41.76
2018-05-25T17:20:28.943Z,44.31
2018-05-25T17:23:00.679Z,44.00
2018-05-25T17:25:29.724Z,45.46
2018-05-25T17:28:00.845Z,44.39
2018-05-25T17:30:29.935Z,42.86
2018-05-25T17:33:01.598Z,42.82
2018-05-25T17:35:38.593Z,46.21
2018-05-25T17:38:10.610Z,44.59
2018-05-25T17:40:44.402Z,43.62
2018-05-25T17:43:13.050Z,44.38
2018-05-25T17:45:41.463Z,45.50
2018-05-25T17:48:09.892Z,43.59
2018-05-25T17:50:38.256Z,45.77
2018-05-25T17:53:06.634Z,45.62
2018-05-25T17:55:35.091Z,44.44
2018-05-25T17:58:05.574Z,44.87
2018-05-25T18:00:34.010Z,46.45
2018-05-25T18:03:02.402Z,45.40
2018-05-25T18:05:30.795Z,44.53
2018-05-25T18:07:59.173Z,45.00
2018-05-25T18:10:31.065Z,45.89
2018-05-25T18:12:59.890Z,47.55
2018-05-25T18:15:28.307Z,51.31
2018-05-25T18:17:59.489Z,50.70
2018-05-25T18:20:28.606Z,52.87
2018-05-25T18:22:57.081Z,53.67
2018-05-25T18:25:25.470Z,52.49
2018-05-25T18:27:54.336Z,52.04
2018-05-25T18:30:25.255Z,52.89
2018-05-25T18:32:53.678Z,52.32
2018-05-25T18:35:22.189Z,51.10
2018-05-25T18:37:50.783Z,52.75
2018-05-25T18:40:19.228Z,52.15
2018-05-25T18:42:47.630Z,53.84
2018-05-25T18:45:16.107Z,53.69
2018-05-25T18:47:55.288Z,53.54
2018-05-25T18:50:24.288Z,56.20
2018-05-25T18:52:59.750Z,57.95
2018-05-25T18:55:30.426Z,57.07
2018-05-25T18:58:03.996Z,57.88
2018-05-25T19:00:39.772Z,57.36
2018-05-25T19:03:14.807Z,56.56
2018-05-25T19:05:52.578Z,57.44
2018-05-25T19:08:22.316Z,57.76
2018-05-25T19:10:51.132Z,59.55
2018-05-25T19:13:19.756Z,59.56
2018-05-25T19:15:54.130Z,60.53
2018-05-25T19:18:23.196Z,56.98
2018-05-25T19:20:51.887Z,57.30
2018-05-25T19:23:21.236Z,57.88
2018-05-25T19:25:49.668Z,58.70
2018-05-25T19:28:18.150Z,59.53
2018-05-25T19:30:48.381Z,59.58
2018-05-25T19:33:16.954Z,58.38
2018-05-25T19:35:46.690Z,61.68
2018-05-25T19:38:16.626Z,60.98
2018-05-25T19:40:45.095Z,60.77
2018-05-25T19:43:20.136Z,61.07
2018-05-25T19:45:48.710Z,61.19
2018-05-25T19:48:17.429Z,60.16
2018-05-25T19:50:46.261Z,60.24
2018-05-25T19:53:18.331Z,60.80
2018-05-25T19:55:47.331Z,60.95
2018-05-25T19:58:18.433Z,59.96
2018-05-25T20:00:54.048Z,59.67
2018-05-25T20:03:22.504Z,60.62
2018-05-25T20:05:50.972Z,60.71
2018-05-25T20:08:24.404Z,59.75
2018-05-25T20:10:56.153Z,59.39
2018-05-25T20:13:24.561Z,59.12
2018-05-25T20:15:53.043Z,60.19
2018-05-25T20:18:21.505Z,60.63
2018-05-25T20:20:50.476Z,60.81
2018-05-25T20:23:19.032Z,60.40
2018-05-25T20:25:47.468Z,60.37
2018-05-25T20:28:16.007Z,59.83
2018-05-25T20:30:48.604Z,60.31
2018-05-25T20:33:19.796Z,59.02
2018-05-25T20:35:49.571Z,59.98
2018-05-25T20:38:19.765Z,59.79
2018-05-25T20:40:48.223Z,59.42
2018-05-25T20:43:20.860Z,61.40
2018-05-25T20:45:50.563Z,61.03
2018-05-25T20:48:19.062Z,62.26
2018-05-25T20:50:54.134Z,61.77
2018-05-25T20:53:22.666Z,59.75
2018-05-25T20:55:59.197Z,60.82
2018-05-25T20:58:27.969Z,59.59
2018-05-25T21:00:59.574Z,61.26
2018-05-25T21:03:29.010Z,59.90
2018-05-25T21:06:15.641Z,60.62
2018-05-25T21:11:33.290Z,60.70
2018-05-25T21:14:02.830Z,60.53
2018-05-25T21:16:31.313Z,59.61
2018-05-25T21:19:00.723Z,60.42
2018-05-25T21:21:29.236Z,60.46
2018-05-25T21:23:58.006Z,60.10
2018-05-25T21:26:26.801Z,60.23
2018-05-25T21:28:55.378Z,60.58
2018-05-25T21:31:25.755Z,60.65
2018-05-25T21:33:57.034Z,61.91
2018-05-25T21:36:33.676Z,61.58
2018-05-25T21:39:13.359Z,60.58
2018-05-25T21:41:42.004Z,62.01
2018-05-25T21:44:12.502Z,61.26
2018-05-25T21:46:40.903Z,61.19
2018-05-25T21:49:09.545Z,62.28
2018-05-25T21:51:38.027Z,61.70
2018-05-25T21:54:16.294Z,59.76
2018-05-25T21:56:46.994Z,61.58
2018-05-25T21:59:20.258Z,60.38
2018-05-25T22:01:52.110Z,60.68
2018-05-25T22:04:23.569Z,61.90
2018-05-25T22:06:54.520Z,61.37
2018-05-25T22:09:29.964Z,62.45
2018-05-25T22:11:59.159Z,61.07
2018-05-25T22:14:35.308Z,61.02
2018-05-25T22:17:03.807Z,61.03
2018-05-25T22:19:40.419Z,60.79
2018-05-25T22:22:09.215Z,61.30
2018-05-25T22:24:39.831Z,61.00
2018-05-25T22:27:13.745Z,61.93
2018-05-25T22:29:53.932Z,61.04
2018-05-25T22:32:23.078Z,62.99
2018-05-25T22:34:55.144Z,61.01
2018-05-25T22:37:24.028Z,61.07
2018-05-25T22:39:52.827Z,61.22
2018-05-25T22:42:41.658Z,60.08
2018-05-25T22:45:35.583Z,60.18
2018-05-25T22:48:21.735Z,62.26
2018-05-25T22:51:08.002Z,60.04
2018-05-25T22:53:48.176Z,61.19
2018-05-25T22:56:18.635Z,61.15
2018-05-25T22:59:00.135Z,61.13
2018-05-25T23:01:28.757Z,61.03
2018-05-25T23:03:58.169Z,60.63
2018-05-25T23:06:34.598Z,60.57
2018-05-25T23:09:14.369Z,59.61
2018-05-25T23:11:52.466Z,60.65
2018-05-25T23:14:20.950Z,60.36
2018-05-25T23:16:54.879Z,60.16
2018-05-25T23:19:23.620Z,61.11
2018-05-25T23:21:52.412Z,61.09
2018-05-25T23:24:20.874Z,60.66
2018-05-25T23:26:50.243Z,60.24
2018-05-25T23:29:18.637Z,60.41
2018-05-25T23:31:47.142Z,60.31
2018-05-25T23:34:15.554Z,60.66
2018-05-25T23:36:43.940Z,60.27
2018-05-25T23:39:12.573Z,60.82
2018-05-25T23:41:41.075Z,59.51
2018-05-25T23:44:10.766Z,60.10
2018-05-25T23:46:39.246Z,60.56
2018-05-25T23:49:11.296Z,60.82
2018-05-25T23:51:41.038Z,60.75
2018-05-25T23:54:10.912Z,60.37
2018-05-25T23:56:48.423Z,60.61
2018-05-25T23:59:17.180Z,59.89
